Terminal Aerodrome Forecast
Issued by NWS Greer, SC

Home | Current Version | Previous Version | Text Only | Print | Product List | Glossary On
Versions: 1 2 3 4 5 6 7 8 9 10 11 12 13 14 15 16 17 18 19 20 21 22 23 24 25 26 27 28 29 30 31 32 33 34 35 36 37 38 39 40 41 42 43 44 45 46 47 48 49 50
000
FTUS42 KGSP 161700
TAFCLT
TAF
KCLT 161723Z 1618/1718 32004KT P6SM BKN045
      TEMPO 1622/1702 VRB10G20KT 4SM TSRA BKN030CB
     FM170300 34003KT P6SM BKN040 PROB30 1703/1705 4SM TSRA BKN030CB
     FM170500 01003KT 6SM BR BKN035
     FM170800 02003KT 4SM BR BKN016
     FM171600 03005KT P6SM BKN024=

USA.gov is the U.S. government's official web portal to all federal, state and local government web resources and services.